Latest Weather Observations for Lake Macquarie - Cooranbong

IDN60801

Issued at 10:32 am EST Friday 28 July 2017 (issued every 30 minutes, with the page automatically refreshed every 10 minutes)

About weather observations | Map of weather stations | Latest weather observations for NSW | Other Formats
Station Details ID: 061412 Name: LAKE MACQUARIE AWS Lat: -33.09 Lon: 151.46 Height: 6.0 m
Data from the previous 72 hours. | See also: Recent months at Lake Macquarie - Cooranbong
Date/Time
EST
Temp
°C
App
Temp
°C
Dew
Point
°C
Rel
Hum
%
Delta-T
°C
Wind Press
QNH
hPa
Press
MSL
hPa
Rain since
9am
mm
Dir  Spd
km/h
Gust
km/h
Spd
kts
Gust
kts
28/10:30am 14.0 13.7 8.6 70 2.7 CALM 0 0 0 0 1017.9 1017.9 0.0
28/10:00am 11.4 11.5 10.3 93 0.6 CALM 0 0 0 0 1018.2 1018.2 0.0
28/09:30am 10.5 9.7 9.7 95 0.4 NE 4 4 2 2 1018.0 1018.0 0.0
28/09:00am 8.9 8.5 8.3 96 0.3 CALM 0 0 0 0 1018.6 1018.6 0.0
28/08:30am 7.6 7.0 7.2 97 0.2 CALM 0 0 0 0 1018.9 1018.9 0.0
28/08:00am 6.9 5.7 6.6 98 0.1 SE 2 4 1 2 1018.9 1018.9 0.0
28/07:30am 6.2 4.9 6.1 99 0.0 S 2 4 1 2 1019.3 1019.3 0.0
28/07:00am 5.2 4.1 4.9 98 0.1 CALM 0 4 0 2 1018.7 1018.7 0.0
28/06:30am 5.2 4.1 4.9 98 0.1 CALM 0 0 0 0 1018.6 1018.6 0.0
28/06:00am 4.9 3.4 4.8 99 0.0 W 2 6 1 3 1018.3 1018.3 0.0
28/05:30am 3.9 2.1 3.6 98 0.1 NW 2 4 1 2 1017.7 1017.7 0.0
28/05:00am 3.6 2.2 3.3 98 0.1 CALM 0 0 0 0 1017.6 1017.6 0.0
28/04:30am 3.6 1.8 3.3 98 0.1 NW 2 4 1 2 1018.0 1018.0 0.0
28/04:00am 4.2 2.5 3.9 98 0.1 NNW 2 4 1 2 1018.0 1018.0 0.0
28/03:30am 4.3 3.0 4.0 98 0.1 CALM 0 0 0 0 1018.7 1018.7 0.0
28/03:00am 4.0 2.6 3.6 97 0.2 CALM 0 0 0 0 1018.9 1018.9 0.0
28/02:30am 4.2 2.9 3.9 98 0.1 CALM 0 0 0 0 1019.4 1019.4 0.0
28/02:00am 4.5 2.8 4.2 98 0.1 N 2 6 1 3 1019.8 1019.8 0.0
28/01:30am 4.8 3.6 4.4 97 0.2 CALM 0 0 0 0 1020.6 1020.6 0.0
28/01:00am 5.2 4.0 4.8 97 0.2 CALM 0 0 0 0 1020.9 1020.9 0.0
28/12:30am 5.5 4.4 5.2 98 0.1 CALM 0 0 0 0 1021.1 1021.1 0.0
28/12:00am 5.5 4.4 5.1 97 0.2 CALM 0 0 0 0 1021.1 1021.1 0.0
 
Date/Time
EST
Temp
°C
App
Temp
°C
Dew
Point
°C
Rel
Hum
%
Delta-T
°C
Wind Press
QNH
hPa
Press
MSL
hPa
Rain since
9am
mm
Dir  Spd
km/h
Gust
km/h
Spd
kts
Gust
kts
27/11:30pm 5.5 4.4 4.9 96 0.3 CALM 0 0 0 0 1021.4 1021.4 0.0
27/11:00pm 5.7 4.6 5.3 97 0.2 CALM 0 0 0 0 1021.8 1021.8 0.0
27/10:30pm 6.0 5.0 5.4 96 0.3 CALM 0 0 0 0 1022.3 1022.3 0.0
27/10:00pm 6.1 5.1 5.5 96 0.3 CALM 0 0 0 0 1022.8 1022.8 0.0
27/09:30pm 6.9 6.1 6.3 96 0.3 CALM 0 0 0 0 1022.9 1022.9 0.0
27/09:00pm 6.9 6.0 6.2 95 0.3 CALM 0 0 0 0 1022.8 1022.8 0.0
27/08:30pm 7.0 6.1 6.1 94 0.4 CALM 0 0 0 0 1023.1 1023.1 0.0
27/08:00pm 7.5 6.8 6.8 95 0.3 CALM 0 0 0 0 1023.2 1023.2 0.0
27/07:30pm 8.0 7.3 6.9 93 0.5 CALM 0 0 0 0 1023.3 1023.3 0.0
27/07:00pm 8.3 7.6 7.1 92 0.6 CALM 0 0 0 0 1023.1 1023.1 0.0
27/06:30pm 9.2 8.6 7.6 90 0.8 CALM 0 0 0 0 1022.9 1022.9 0.0
27/06:00pm 10.0 9.5 7.9 87 1.0 CALM 0 4 0 2 1022.6 1022.6 0.0
27/05:30pm 11.8 11.3 7.7 76 2.0 CALM 0 0 0 0 1022.6 1022.6 0.0
27/05:00pm 13.8 13.2 7.3 65 3.2 CALM 0 0 0 0 1022.5 1022.5 0.0
27/04:30pm 15.8 14.5 7.6 58 4.1 E 4 7 2 4 1022.6 1022.6 0.0
27/04:00pm 16.3 14.1 7.8 57 4.3 ESE 9 15 5 8 1022.6 1022.6 0.0
27/03:30pm 16.6 14.9 7.5 55 4.6 NE 6 9 3 5 1022.8 1022.8 0.0
27/03:00pm 17.4 15.5 7.7 53 4.9 ESE 7 13 4 7 1022.9 1022.9 0.0
27/02:30pm 17.3 15.4 7.6 53 4.9 E 7 13 4 7 1023.0 1023.0 0.0
27/02:00pm 17.1 14.3 6.9 51 5.0 E 11 17 6 9 1022.9 1022.9 0.0
27/01:30pm 18.5 16.6 6.7 46 5.9 NE 6 9 3 5 1023.1 1023.1 0.0
27/01:00pm 17.1 15.4 5.7 47 5.5 E 4 9 2 5 1023.3 1023.3 0.0
27/12:30pm 17.3 15.2 5.6 46 5.7 SE 6 11 3 6 1023.5 1023.5 0.0
27/12:00pm 17.3 15.0 5.6 46 5.6 ESE 7 15 4 8 1024.1 1024.1 0.0
27/11:30am 16.9 15.2 6.1 49 5.3 SW 4 7 2 4 1024.7 1024.7 0.0
27/11:00am 17.1 15.7 5.4 46 5.6 SW 2 9 1 5 1025.3 1025.3 0.0
27/10:30am 16.8 15.6 6.3 50 5.1 S 2 7 1 4 1025.6 1025.6 0.0
27/10:00am 15.5 13.4 6.0 53 4.5 WSW 6 11 3 6 1025.8 1025.8 0.0
27/09:30am 14.2 12.4 5.6 56 4.1 WSW 4 11 2 6 1025.5 1025.5 0.0
27/09:00am 11.7 11.4 8.7 82 1.5 CALM 0 0 0 0 1025.5 1025.5 0.0
27/08:30am 7.3 6.4 5.9 91 0.6 CALM 0 0 0 0 1025.3 1025.3 0.0
27/08:00am 4.1 2.7 3.8 98 0.1 CALM 0 0 0 0 1025.0 1025.0 0.0
27/07:30am 2.3 0.6 1.9 97 0.2 CALM 0 0 0 0 1024.8 1024.8 0.0
27/07:00am 2.1 0.4 1.7 97 0.2 CALM 0 0 0 0 1024.7 1024.7 0.0
27/06:30am 2.3 0.6 1.7 96 0.2 CALM 0 0 0 0 1024.5 1024.5 0.0
27/06:00am 2.6 1.0 2.2 97 0.2 CALM 0 0 0 0 1024.1 1024.1 0.0
27/05:30am 2.8 1.2 2.2 96 0.2 CALM 0 0 0 0 1023.8 1023.8 0.0
27/05:00am 3.0 1.4 2.3 95 0.3 CALM 0 0 0 0 1023.6 1023.6 0.0
27/04:30am 3.2 1.6 2.5 95 0.3 CALM 0 0 0 0 1023.5 1023.5 0.0
27/04:00am 3.3 1.7 2.4 94 0.4 CALM 0 0 0 0 1023.4 1023.4 0.0
27/03:30am 3.5 2.0 2.8 95 0.3 CALM 0 0 0 0 1023.3 1023.3 0.0
27/03:00am 4.0 2.5 3.0 93 0.4 CALM 0 0 0 0 1023.3 1023.3 0.0
27/02:30am 4.4 3.0 3.4 93 0.4 CALM 0 0 0 0 1023.1 1023.1 0.0
27/02:00am 4.8 3.4 3.6 92 0.5 CALM 0 0 0 0 1023.0 1023.0 0.0
27/01:30am 5.1 3.7 3.8 91 0.5 CALM 0 0 0 0 1022.9 1022.9 0.0
27/01:00am 5.3 3.9 3.6 89 0.7 CALM 0 0 0 0 1022.8 1022.8 0.0
27/12:30am 5.8 4.4 3.8 87 0.8 CALM 0 0 0 0 1022.8 1022.8 0.0
27/12:00am 6.4 4.7 3.9 84 1.1 W 2 6 1 3 1022.5 1022.5 0.0
 
Date/Time
EST
Temp
°C
App
Temp
°C
Dew
Point
°C
Rel
Hum
%
Delta-T
°C
Wind Press
QNH
hPa
Press
MSL
hPa
Rain since
9am
mm
Dir  Spd
km/h
Gust
km/h
Spd
kts
Gust
kts
26/11:30pm 6.5 4.8 4.0 84 1.1 SE 2 4 1 2 1022.2 1022.2 0.0
26/11:00pm 6.6 4.9 4.1 84 1.1 ESE 2 7 1 4 1022.0 1022.0 0.0
26/10:30pm 7.1 5.9 4.4 83 1.2 CALM 0 2 0 1 1021.6 1021.6 0.0
26/10:00pm 8.0 6.8 4.6 79 1.5 CALM 0 2 0 1 1021.3 1021.3 0.0
26/09:30pm 8.1 6.9 4.7 79 1.5 CALM 0 4 0 2 1021.2 1021.2 0.0
26/09:00pm 8.4 6.4 4.2 75 1.8 N 4 6 2 3 1020.7 1020.7 0.0
26/08:30pm 9.2 7.2 4.2 71 2.2 NNW 4 7 2 4 1020.4 1020.4 0.0
26/08:00pm 9.8 7.8 4.4 69 2.4 NW 4 6 2 3 1020.1 1020.1 0.0
26/07:30pm 13.0 10.9 3.7 53 4.2 NW 4 6 2 3 1019.9 1019.9 0.0
26/07:00pm 15.0 12.7 2.9 44 5.4 NW 4 7 2 4 1019.6 1019.6 0.0
26/06:30pm 17.4 14.6 1.8 35 7.0 WSW 6 13 3 7 1018.9 1018.9 0.0
26/06:00pm 17.4 14.6 1.8 35 7.0 WSW 6 15 3 8 1018.1 1018.1 0.0
26/05:30pm 18.1 15.3 2.0 34 7.3 WSW 6 13 3 7 1017.5 1017.5 0.0
26/05:00pm 19.3 16.3 1.8 31 8.0 WSW 7 15 4 8 1016.8 1016.8 0.0
26/04:30pm 20.9 17.9 1.7 28 8.8 WSW 7 13 4 7 1016.4 1016.4 0.0
26/04:00pm 21.7 17.5 1.4 26 9.3 W 13 24 7 13 1015.7 1015.7 0.0
26/03:30pm 22.1 17.6 2.2 27 9.3 W 15 32 8 17 1015.4 1015.4 0.0
26/03:00pm 22.5 18.5 2.6 27 9.4 WSW 13 33 7 18 1015.1 1015.1 0.0
26/02:30pm 22.8 19.4 3.9 29 9.2 W 11 24 6 13 1015.0 1015.0 0.0
26/02:00pm 22.6 17.6 3.7 29 9.1 WSW 19 32 10 17 1015.0 1015.0 0.0
26/01:30pm 22.6 17.7 4.2 30 9.0 W 19 37 10 20 1014.9 1014.9 0.0
26/01:00pm 22.5 17.0 4.1 30 9.0 WNW 22 41 12 22 1014.8 1014.8 0.0
26/12:30pm 22.3 17.8 4.4 31 8.8 WNW 17 33 9 18 1015.1 1015.1 0.0
26/12:00pm 21.8 17.9 5.3 34 8.2 W 15 28 8 15 1015.5 1015.5 0.0
26/11:30am 21.6 19.0 5.9 36 7.9 WNW 9 17 5 9 1016.2 1016.2 0.0
26/11:00am 21.1 18.0 5.5 36 7.7 WNW 11 19 6 10 1016.5 1016.5 0.0
26/10:30am 20.6 17.7 4.6 35 7.8 WNW 9 17 5 9 1017.1 1017.1 0.0
26/10:00am 20.2 17.8 5.1 37 7.4 WNW 7 17 4 9 1017.2 1017.2 0.0
26/09:30am 19.1 15.3 3.7 36 7.3 NW 13 26 7 14 1016.9 1016.9 0.0
26/09:00am 17.9 15.4 4.5 41 6.4 NNW 7 15 4 8 1017.4 1017.4 0.0
26/08:30am 14.2 12.5 7.7 65 3.2 N 6 9 3 5 1017.4 1017.4 0.0
26/08:25am 13.0 11.4 7.9 71 2.5 N 6 7 3 4 1017.3 1017.3 0.0
26/08:00am 8.0 6.6 5.5 84 1.1 N 2 6 1 3 1017.5 1017.5 0.0
26/07:30am 6.0 4.7 4.3 89 0.7 CALM 0 4 0 2 1017.8 1017.8 0.0
26/07:00am 6.0 4.7 4.0 87 0.8 CALM 0 2 0 1 1017.4 1017.4 0.0
26/06:30am 6.3 4.6 4.0 85 1.0 NNE 2 4 1 2 1017.4 1017.4 0.0
26/06:00am 6.9 5.5 3.3 78 1.5 CALM 0 0 0 0 1017.4 1017.4 0.0
26/05:30am 7.7 6.4 4.1 78 1.6 CALM 0 0 0 0 1017.4 1017.4 0.0
26/05:00am 8.3 7.0 4.1 75 1.8 CALM 0 0 0 0 1016.5 1016.5 0.0
26/04:30am 10.3 7.8 3.6 63 2.9 N 6 9 3 5 1016.2 1016.2 0.0
26/04:00am 11.4 8.8 3.4 58 3.5 NNW 6 9 3 5 1017.0 1017.0 0.0
26/03:30am 14.2 11.6 3.1 47 5.0 NNW 6 9 3 5 1016.8 1016.8 0.0
26/03:00am 14.9 12.1 3.4 46 5.2 NNW 7 13 4 7 1017.0 1017.0 0.0
26/02:30am 11.8 9.6 5.4 65 3.0 NNW 6 13 3 7 1017.3 1017.3 0.0
26/02:00am 7.6 6.1 5.1 84 1.1 N 2 6 1 3 1017.5 1017.5 0.0
26/01:30am 8.7 7.3 5.3 79 1.5 N 2 6 1 3 1017.7 1017.7 0.0
26/01:00am 10.3 8.3 4.5 67 2.6 NNE 4 6 2 3 1018.0 1018.0 0.0
26/12:30am 14.2 11.3 4.8 53 4.4 N 9 15 5 8 1018.1 1018.1 0.0
26/12:17am 14.7 12.4 5.8 55 4.2 N 7 15 4 8 1018.2 1018.2 0.0
26/12:00am 9.5 7.3 6.4 81 1.4 N 7 13 4 7 1018.4 1018.4 0.0
 
Date/Time
EST
Temp
°C
App
Temp
°C
Dew
Point
°C
Rel
Hum
%
Delta-T
°C
Wind Press
QNH
hPa
Press
MSL
hPa
Rain since
9am
mm
Dir  Spd
km/h
Gust
km/h
Spd
kts
Gust
kts
25/11:30pm 6.5 4.3 5.5 93 0.4 N 6 9 3 5 1018.8 1018.8 0.0
25/11:00pm 6.4 4.7 5.7 95 0.3 N 4 6 2 3 1018.9 1018.9 0.0
25/10:30pm 6.3 5.3 5.7 96 0.3 CALM 0 0 0 0 1019.1 1019.1 0.0
25/10:00pm 6.4 5.4 5.8 96 0.3 CALM 0 0 0 0 1019.1 1019.1 0.0
25/09:30pm 6.7 5.8 6.1 96 0.3 CALM 0 0 0 0 1019.2 1019.2 0.0
25/09:00pm 6.9 6.0 6.0 94 0.4 CALM 0 0 0 0 1019.4 1019.4 0.0
25/08:30pm 7.4 6.6 6.3 93 0.5 CALM 0 0 0 0 1019.5 1019.5 0.0
25/08:00pm 7.9 7.1 6.7 92 0.6 CALM 0 0 0 0 1019.7 1019.7 0.0
25/07:30pm 8.6 7.9 6.9 89 0.8 CALM 0 0 0 0 1019.6 1019.6 0.0
25/07:00pm 9.3 8.8 7.7 90 0.8 CALM 0 0 0 0 1019.5 1019.5 0.0
25/06:30pm 9.9 9.4 7.7 86 1.1 CALM 0 0 0 0 1019.4 1019.4 0.0
25/06:00pm 11.3 10.5 8.0 80 1.6 NNW 2 6 1 3 1019.3 1019.3 0.0
25/05:30pm 12.9 12.4 7.8 71 2.5 CALM 0 0 0 0 1019.2 1019.2 0.0
25/05:00pm 15.8 14.9 7.6 58 4.1 NNW 2 6 1 3 1019.0 1019.0 0.0
25/04:30pm 18.5 17.0 6.7 46 5.9 NNE 4 6 2 3 1019.0 1019.0 0.0
25/04:00pm 19.2 17.3 6.7 44 6.2 NNE 6 9 3 5 1019.0 1019.0 0.0
25/03:30pm 19.4 16.8 6.2 42 6.6 NNE 9 15 5 8 1019.3 1019.3 0.0
25/03:00pm 20.9 18.5 4.5 34 7.9 WNW 6 9 3 5 1019.5 1019.5 0.0
25/02:30pm 20.3 17.8 4.8 36 7.5 NW 7 17 4 9 1019.8 1019.8 0.0
25/02:00pm 19.5 16.6 4.4 37 7.2 NNW 9 13 5 7 1020.0 1020.0 0.0
25/01:30pm 19.0 16.1 4.4 38 7.0 W 9 15 5 8 1020.4 1020.4 0.0
25/01:00pm 18.6 15.8 5.1 41 6.5 NNW 9 20 5 11 1021.0 1021.0 0.0
25/12:30pm 18.0 15.5 4.6 41 6.4 NNW 7 13 4 7 1021.6 1021.6 0.0
25/12:00pm 17.6 14.4 5.2 44 5.9 NNW 11 19 6 10 1022.4 1022.4 0.0
25/11:30am 17.6 15.2 5.2 44 6.0 NW 7 13 4 7 1023.0 1023.0 0.0
25/11:00am 17.8 15.6 6.3 47 5.6 NW 7 15 4 8 1023.6 1023.6 0.0

Other Formats:

Comma delimited format used in spreadsheet applications
http://www.bom.gov.au/fwo/IDN60801/IDN60801.95767.axf

JavaScript Object Notation format (JSON) in row-major order
http://www.bom.gov.au/fwo/IDN60801/IDN60801.95767.json